createdAt,value
2019-05-10T00:00:28.335Z,7.87
2019-05-10T00:03:18.216Z,7.30
2019-05-10T00:06:07.924Z,7.78
2019-05-10T00:08:47.543Z,7.45
2019-05-10T00:11:38.866Z,7.55
2019-05-10T00:14:20.333Z,7.78
2019-05-10T00:16:53.956Z,7.92
2019-05-10T00:19:26.019Z,8.38
2019-05-10T00:21:57.658Z,7.62
2019-05-10T00:24:29.534Z,7.40
2019-05-10T00:27:01.729Z,8.25
2019-05-10T00:29:33.461Z,8.15
2019-05-10T00:32:05.019Z,7.30
2019-05-10T00:34:36.882Z,7.40
2019-05-10T00:37:08.835Z,8.45
2019-05-10T00:39:40.709Z,8.38
2019-05-10T00:42:13.048Z,7.03
2019-05-10T00:44:44.940Z,7.55
2019-05-10T00:47:16.864Z,8.75
2019-05-10T00:49:48.871Z,7.97
2019-05-10T00:52:20.629Z,8.30
2019-05-10T00:54:52.284Z,7.50
2019-05-10T00:57:24.030Z,6.62
2019-05-10T00:59:55.802Z,7.28
2019-05-10T01:02:27.855Z,7.78
2019-05-10T01:04:59.731Z,7.25
2019-05-10T01:07:31.399Z,6.95
2019-05-10T01:10:03.869Z,8.23
2019-05-10T01:12:35.406Z,8.25
2019-05-10T01:15:09.312Z,7.83
2019-05-10T01:17:41.196Z,8.00
2019-05-10T01:20:13.300Z,9.20
2019-05-10T01:22:45.118Z,9.50
2019-05-10T01:25:17.296Z,8.38
2019-05-10T01:27:49.333Z,8.58
2019-05-10T01:30:21.419Z,9.83
2019-05-10T01:32:53.193Z,10.78
2019-05-10T01:35:25.019Z,10.58
2019-05-10T01:37:57.129Z,10.68
2019-05-10T01:40:29.055Z,9.03
2019-05-10T01:43:00.813Z,9.55
2019-05-10T01:45:33.001Z,11.18
2019-05-10T01:48:04.769Z,11.48
2019-05-10T01:50:36.622Z,11.68
2019-05-10T01:53:08.697Z,13.25
2019-05-10T01:55:51.760Z,12.95
2019-05-10T01:58:13.954Z,14.45
2019-05-10T02:00:45.815Z,13.70
2019-05-10T02:03:17.687Z,13.20
2019-05-10T02:05:49.547Z,13.78
2019-05-10T02:12:40.321Z,15.35
2019-05-10T02:15:12.424Z,16.17
2019-05-10T02:17:44.097Z,16.42
2019-05-10T02:20:16.764Z,17.35
2019-05-10T02:22:48.437Z,16.42
2019-05-10T02:25:20.453Z,17.67
2019-05-10T02:27:52.045Z,18.67
2019-05-10T02:30:24.016Z,19.75
2019-05-10T02:32:55.563Z,19.67
2019-05-10T02:35:27.530Z,21.57
2019-05-10T02:37:59.733Z,20.55
2019-05-10T02:40:31.561Z,20.72
2019-05-10T02:43:03.587Z,19.70
2019-05-10T02:45:35.324Z,21.52
2019-05-10T02:48:07.253Z,19.85
2019-05-10T02:50:38.804Z,19.77
2019-05-10T02:53:11.477Z,19.35
2019-05-10T02:55:44.252Z,18.55
2019-05-10T02:58:15.716Z,18.62
2019-05-10T03:00:50.256Z,16.45
2019-05-10T03:03:24.855Z,15.15
2019-05-10T03:05:57.810Z,15.00
2019-05-10T03:08:32.941Z,15.08
2019-05-10T03:11:04.561Z,13.08
2019-05-10T03:13:36.757Z,12.05
2019-05-10T03:16:08.490Z,11.73
2019-05-10T03:18:42.359Z,12.13
2019-05-10T03:21:17.244Z,12.45
2019-05-10T03:23:49.309Z,12.73
2019-05-10T03:26:21.027Z,12.13
2019-05-10T03:28:52.989Z,12.05
2019-05-10T03:31:24.993Z,12.80
2019-05-10T03:33:57.930Z,11.43
2019-05-10T03:36:29.683Z,11.73
2019-05-10T03:39:02.135Z,12.50
2019-05-10T03:41:33.778Z,12.28
2019-05-10T03:44:05.855Z,12.25
2019-05-10T03:46:39.039Z,12.55
2019-05-10T03:49:10.686Z,12.95
2019-05-10T03:51:42.361Z,14.65
2019-05-10T03:54:14.468Z,14.70
2019-05-10T03:56:46.530Z,14.10
2019-05-10T03:59:19.897Z,14.47
2019-05-10T04:01:52.171Z,13.80
2019-05-10T04:04:24.350Z,13.78
2019-05-10T04:06:56.919Z,14.00
2019-05-10T04:09:28.882Z,14.40
2019-05-10T04:12:00.548Z,15.43
2019-05-10T04:14:32.401Z,13.93
2019-05-10T04:17:04.650Z,15.25
2019-05-10T04:19:36.471Z,14.65
2019-05-10T04:22:08.280Z,15.25
2019-05-10T04:24:40.152Z,14.45
2019-05-10T04:27:30.670Z,13.00
2019-05-10T04:29:45.695Z,12.70
2019-05-10T04:32:17.787Z,12.33
2019-05-10T04:34:49.655Z,12.23
2019-05-10T04:37:21.404Z,11.78
2019-05-10T04:39:53.370Z,10.70
2019-05-10T04:42:25.176Z,10.55
2019-05-10T04:44:56.663Z,10.60
2019-05-10T04:47:28.850Z,10.82
2019-05-10T04:50:01.208Z,11.08
2019-05-10T04:52:32.878Z,10.23
2019-05-10T04:55:06.642Z,10.08
2019-05-10T04:57:49.816Z,9.28
2019-05-10T05:00:11.842Z,8.85
2019-05-10T05:02:43.794Z,7.53
2019-05-10T05:05:15.574Z,7.28
2019-05-10T05:07:47.846Z,6.87
2019-05-10T05:10:19.703Z,6.90
2019-05-10T05:12:51.766Z,7.45
2019-05-10T05:15:23.510Z,7.40
2019-05-10T05:17:55.267Z,7.20
2019-05-10T05:20:27.253Z,7.33
2019-05-10T05:22:58.933Z,7.40
2019-05-10T05:25:35.130Z,7.33
2019-05-10T05:28:08.079Z,7.87
2019-05-10T05:30:38.819Z,7.60
2019-05-10T05:33:12.604Z,8.10
2019-05-10T05:35:44.869Z,6.87
2019-05-10T05:38:16.529Z,6.42
2019-05-10T05:40:48.475Z,6.28
2019-05-10T05:43:20.572Z,7.30
2019-05-10T05:45:52.221Z,6.40
2019-05-10T05:48:32.422Z,6.85
2019-05-10T05:50:57.487Z,7.00
2019-05-10T05:53:29.657Z,7.10
2019-05-10T05:56:03.687Z,6.62
2019-05-10T05:58:38.286Z,6.45
2019-05-10T06:01:07.885Z,6.40
2019-05-10T06:03:39.762Z,6.42
2019-05-10T06:06:26.823Z,5.70
2019-05-10T06:08:45.127Z,5.92
2019-05-10T06:11:17.169Z,4.42
2019-05-10T06:13:50.088Z,4.60
2019-05-10T06:16:22.579Z,4.63
2019-05-10T06:18:54.813Z,4.80
2019-05-10T06:21:28.550Z,4.92
2019-05-10T06:24:00.579Z,4.17
2019-05-10T06:26:32.657Z,4.00
2019-05-10T06:29:10.160Z,3.92
2019-05-10T06:31:38.015Z,4.58
2019-05-10T06:34:09.992Z,4.47
2019-05-10T06:36:42.157Z,3.90
2019-05-10T06:39:14.027Z,4.87
2019-05-10T06:41:50.090Z,4.30
2019-05-10T06:44:19.385Z,3.02
2019-05-10T06:46:51.357Z,3.25
2019-05-10T06:49:23.193Z,3.20
2019-05-10T06:51:56.305Z,2.80
2019-05-10T06:54:29.811Z,3.08
2019-05-10T06:57:02.040Z,3.05
2019-05-10T06:59:35.685Z,3.70
2019-05-10T07:04:41.160Z,3.25
2019-05-10T07:07:22.396Z,3.02
2019-05-10T07:10:04.262Z,3.17
2019-05-10T07:12:20.917Z,3.27
2019-05-10T07:14:57.793Z,2.80
2019-05-10T07:17:27.876Z,2.85
2019-05-10T07:20:01.612Z,2.92
2019-05-10T07:22:34.294Z,3.33
2019-05-10T07:25:08.506Z,2.92
2019-05-10T07:27:42.324Z,2.60
2019-05-10T07:30:18.123Z,2.93
2019-05-10T07:32:54.587Z,2.90
2019-05-10T07:35:30.954Z,2.62
2019-05-10T07:37:59.517Z,2.17
2019-05-10T07:40:31.654Z,2.65
2019-05-10T07:43:04.283Z,2.60
2019-05-10T07:45:36.644Z,2.60
2019-05-10T07:48:10.301Z,2.40
2019-05-10T07:50:49.768Z,2.10
2019-05-10T07:53:16.567Z,2.70
2019-05-10T07:55:48.367Z,2.72
2019-05-10T07:58:20.124Z,2.60
2019-05-10T08:00:51.787Z,3.17
2019-05-10T08:03:24.014Z,2.92
2019-05-10T08:06:01.302Z,2.70
2019-05-10T08:08:29.729Z,3.33
2019-05-10T08:11:01.367Z,3.92
2019-05-10T08:13:33.225Z,3.47
2019-05-10T08:16:09.948Z,3.52
2019-05-10T08:18:41.982Z,3.60
2019-05-10T08:21:21.880Z,3.10
2019-05-10T08:23:45.713Z,4.35
2019-05-10T08:26:21.937Z,5.78
2019-05-10T08:28:52.585Z,5.05
2019-05-10T08:31:26.329Z,4.80
2019-05-10T08:33:59.259Z,7.03
2019-05-10T08:36:32.418Z,8.13
2019-05-10T08:39:10.646Z,7.78
2019-05-10T08:41:42.755Z,6.80
2019-05-10T08:44:19.338Z,5.97
2019-05-10T08:46:47.317Z,8.15
2019-05-10T08:49:22.037Z,8.68
2019-05-10T08:51:52.582Z,9.50
2019-05-10T08:54:26.433Z,8.95
2019-05-10T08:57:01.051Z,7.15
2019-05-10T08:59:31.258Z,7.53
2019-05-10T09:02:02.987Z,8.15
2019-05-10T09:04:42.732Z,7.75
2019-05-10T09:07:08.055Z,7.60
2019-05-10T09:09:45.727Z,7.55
2019-05-10T09:12:13.209Z,7.20
2019-05-10T09:14:48.455Z,7.80
2019-05-10T09:17:23.601Z,7.83
2019-05-10T09:19:51.893Z,8.10
2019-05-10T09:22:32.503Z,8.48
2019-05-10T09:24:56.867Z,6.42
2019-05-10T09:27:29.462Z,5.80
2019-05-10T09:30:03.073Z,6.20
2019-05-10T09:32:35.889Z,6.58
2019-05-10T09:35:09.250Z,7.35
2019-05-10T09:37:42.050Z,9.00
2019-05-10T09:40:16.152Z,9.15
2019-05-10T09:42:47.859Z,8.58
2019-05-10T09:45:24.099Z,9.05
2019-05-10T09:47:53.273Z,9.08
2019-05-10T09:50:30.586Z,9.23
2019-05-10T09:52:58.686Z,8.35
2019-05-10T09:55:30.739Z,7.50
2019-05-10T09:58:02.497Z,5.22
2019-05-10T10:00:37.908Z,4.42
2019-05-10T10:03:12.631Z,3.30
2019-05-10T10:05:43.017Z,2.77
2019-05-10T10:08:14.867Z,2.50
2019-05-10T10:10:47.529Z,2.58
2019-05-10T10:15:52.909Z,2.80
2019-05-10T10:18:25.625Z,3.02
2019-05-10T10:20:57.761Z,2.70
2019-05-10T10:23:33.533Z,2.60
2019-05-10T10:26:03.041Z,2.95
2019-05-10T10:28:37.291Z,3.47
2019-05-10T10:31:08.691Z,3.90
2019-05-10T10:33:57.449Z,3.20
2019-05-10T10:36:17.026Z,4.15
2019-05-10T10:38:49.725Z,4.10
2019-05-10T10:41:25.886Z,4.05
2019-05-10T10:43:58.445Z,4.40
2019-05-10T10:46:30.235Z,4.15
2019-05-10T10:49:01.899Z,4.20
2019-05-10T10:51:34.585Z,3.85
2019-05-10T10:54:07.428Z,4.00
2019-05-10T10:56:40.556Z,3.98
2019-05-10T10:59:12.421Z,2.98
2019-05-10T11:01:50.296Z,2.70
2019-05-10T11:04:17.683Z,2.62
2019-05-10T11:06:49.650Z,2.70
2019-05-10T11:09:21.811Z,2.77
2019-05-10T11:11:53.673Z,2.55
2019-05-10T11:14:31.998Z,2.67
2019-05-10T11:17:01.295Z,2.33
2019-05-10T11:19:33.469Z,2.87
2019-05-10T11:22:09.651Z,3.40
2019-05-10T11:27:13.191Z,3.87
2019-05-10T11:29:43.260Z,3.77
2019-05-10T11:32:16.996Z,4.10
2019-05-10T11:34:48.556Z,4.05
2019-05-10T11:37:30.876Z,4.92
2019-05-10T11:39:53.681Z,5.00
2019-05-10T11:42:25.680Z,5.47
2019-05-10T11:45:00.611Z,5.12
2019-05-10T11:50:06.395Z,4.60
2019-05-10T11:52:36.634Z,3.08
2019-05-10T11:55:11.462Z,2.93
2019-05-10T11:57:44.291Z,2.72
2019-05-10T12:00:28.110Z,2.98
2019-05-10T12:05:26.731Z,2.85
2019-05-10T12:07:56.662Z,2.45
2019-05-10T12:10:28.538Z,2.40
2019-05-10T12:13:14.571Z,2.65
2019-05-10T12:15:34.009Z,2.80
2019-05-10T12:18:05.990Z,2.60
2019-05-10T12:20:52.112Z,2.70
2019-05-10T12:25:58.997Z,2.70
2019-05-10T12:25:59.689Z,3.27
2019-05-10T12:26:29.495Z,2.70
2019-05-10T12:28:24.094Z,2.62
2019-05-10T12:30:51.434Z,2.50
2019-05-10T12:33:27.413Z,2.40
2019-05-10T12:35:57.000Z,2.47
2019-05-10T12:38:31.603Z,2.72
2019-05-10T12:41:05.443Z,2.80
2019-05-10T12:43:36.891Z,2.40
2019-05-10T12:46:10.527Z,2.30
2019-05-10T12:48:42.675Z,2.55
2019-05-10T12:51:16.216Z,3.42
2019-05-10T12:53:49.857Z,3.58
2019-05-10T12:56:21.300Z,4.22
2019-05-10T12:58:57.671Z,3.52
2019-05-10T13:01:32.034Z,3.67
2019-05-10T13:04:02.021Z,3.50
2019-05-10T13:06:35.306Z,3.67
2019-05-10T13:09:08.027Z,3.40
2019-05-10T13:11:39.766Z,4.47
2019-05-10T13:14:11.635Z,3.60
2019-05-10T13:16:43.599Z,3.10
2019-05-10T13:19:20.110Z,2.70
2019-05-10T13:21:53.686Z,2.50
2019-05-10T13:24:23.281Z,2.52
2019-05-10T13:26:59.032Z,3.22
2019-05-10T13:29:31.124Z,3.40
2019-05-10T13:32:02.760Z,3.20
2019-05-10T13:34:35.542Z,3.27
2019-05-10T13:37:13.502Z,3.22
2019-05-10T13:39:40.911Z,3.42
2019-05-10T13:42:12.989Z,3.50
2019-05-10T13:44:44.842Z,3.87
2019-05-10T13:47:16.500Z,3.50
2019-05-10T13:49:49.390Z,2.80
2019-05-10T13:52:21.254Z,3.40
2019-05-10T13:54:53.236Z,3.58
2019-05-10T13:57:25.072Z,3.50
2019-05-10T13:59:57.363Z,3.17
2019-05-10T14:02:33.104Z,3.02
2019-05-10T14:05:02.811Z,3.15
2019-05-10T14:07:35.695Z,3.65
2019-05-10T14:10:07.852Z,4.72
2019-05-10T14:12:39.403Z,4.90
2019-05-10T14:15:13.706Z,5.08
2019-05-10T14:17:45.300Z,5.60
2019-05-10T14:20:25.260Z,5.50
2019-05-10T14:22:55.823Z,6.10
2019-05-10T14:25:29.646Z,5.70
2019-05-10T14:27:57.330Z,6.67
2019-05-10T14:30:29.317Z,6.33
2019-05-10T14:33:01.771Z,5.92
2019-05-10T14:35:33.845Z,6.10
2019-05-10T14:38:08.238Z,6.08
2019-05-10T14:40:39.236Z,5.90
2019-05-10T14:43:10.864Z,7.10
2019-05-10T14:45:42.536Z,5.30
2019-05-10T14:48:14.617Z,5.92
2019-05-10T14:50:47.195Z,5.58
2019-05-10T14:53:25.516Z,5.92
2019-05-10T14:55:53.702Z,5.25
2019-05-10T14:58:25.833Z,5.28
2019-05-10T15:00:57.920Z,4.42
2019-05-10T15:03:34.703Z,4.85
2019-05-10T15:06:03.270Z,4.65
2019-05-10T15:08:35.144Z,4.17
2019-05-10T15:11:07.005Z,3.90
2019-05-10T15:13:38.919Z,4.53
2019-05-10T15:16:13.158Z,6.67
2019-05-10T15:18:44.336Z,6.33
2019-05-10T15:21:16.302Z,4.10
2019-05-10T15:23:48.167Z,3.52
2019-05-10T15:26:19.718Z,4.42
2019-05-10T15:28:51.686Z,3.30
2019-05-10T15:31:23.642Z,7.80
2019-05-10T15:33:56.533Z,4.05
2019-05-10T15:36:29.602Z,3.70
2019-05-10T15:39:01.885Z,3.85
2019-05-10T15:41:35.190Z,4.35
2019-05-10T15:44:07.160Z,5.03
2019-05-10T15:46:42.275Z,6.20
2019-05-10T15:49:13.632Z,5.67
2019-05-10T15:51:54.656Z,5.37
2019-05-10T15:54:20.369Z,4.70
2019-05-10T15:56:55.408Z,5.17
2019-05-10T15:59:25.815Z,5.12
2019-05-10T16:01:57.989Z,4.97
2019-05-10T16:04:29.922Z,5.67
2019-05-10T16:07:01.779Z,5.50
2019-05-10T16:09:33.332Z,5.33
2019-05-10T16:12:08.514Z,4.97
2019-05-10T16:14:39.406Z,4.85
2019-05-10T16:17:17.036Z,4.30
2019-05-10T16:19:45.208Z,4.53
2019-05-10T16:22:17.362Z,4.83
2019-05-10T16:24:49.234Z,5.30
2019-05-10T16:27:20.894Z,5.05
2019-05-10T16:29:52.966Z,6.28
2019-05-10T16:32:29.374Z,6.50
2019-05-10T16:34:58.026Z,6.92
2019-05-10T16:37:29.782Z,7.90
2019-05-10T16:40:01.835Z,7.67
2019-05-10T16:42:35.807Z,7.40
2019-05-10T16:45:07.702Z,7.25
2019-05-10T16:47:39.356Z,8.10
2019-05-10T16:50:11.003Z,7.97
2019-05-10T16:52:42.884Z,8.53
2019-05-10T16:55:14.742Z,7.90
2019-05-10T16:57:46.828Z,10.35
2019-05-10T17:00:20.924Z,9.43
2019-05-10T17:02:53.009Z,8.90
2019-05-10T17:05:24.873Z,9.00
2019-05-10T17:07:58.774Z,8.68
2019-05-10T17:10:33.114Z,8.83
2019-05-10T17:13:05.041Z,8.65
2019-05-10T17:15:39.899Z,9.60
2019-05-10T17:18:17.503Z,9.13
2019-05-10T17:20:45.454Z,9.37
2019-05-10T17:23:17.441Z,9.38
2019-05-10T17:25:49.080Z,9.25
2019-05-10T17:28:20.743Z,10.08
2019-05-10T17:30:52.913Z,10.35
2019-05-10T17:33:24.715Z,9.88
2019-05-10T17:36:07.897Z,10.25
2019-05-10T17:38:31.688Z,10.07
2019-05-10T17:41:03.535Z,10.05
2019-05-10T17:43:35.494Z,10.72
2019-05-10T17:46:07.158Z,10.50
2019-05-10T17:48:40.700Z,11.08
2019-05-10T17:51:12.539Z,11.05
2019-05-10T17:53:45.422Z,11.53
2019-05-10T17:56:17.300Z,11.15
2019-05-10T17:58:49.335Z,11.33
2019-05-10T18:01:21.199Z,12.20
2019-05-10T18:03:53.075Z,12.60
2019-05-10T18:06:24.725Z,12.65
2019-05-10T18:08:56.599Z,14.55
2019-05-10T18:11:28.563Z,14.20
2019-05-10T18:14:00.436Z,13.85
2019-05-10T18:16:32.393Z,14.85
2019-05-10T18:19:04.547Z,18.80
2019-05-10T18:21:36.301Z,23.10
2019-05-10T18:24:09.838Z,24.82
2019-05-10T18:26:41.666Z,23.18
2019-05-10T18:29:13.324Z,23.02
2019-05-10T18:31:54.480Z,23.05
2019-05-10T18:34:18.592Z,23.87
2019-05-10T18:36:51.954Z,22.58
2019-05-10T18:39:24.287Z,22.37
2019-05-10T18:41:56.225Z,22.70
2019-05-10T18:44:28.291Z,22.50
2019-05-10T18:47:00.023Z,22.05
2019-05-10T18:49:32.302Z,21.45
2019-05-10T18:52:06.347Z,19.85
2019-05-10T18:54:38.612Z,21.27
2019-05-10T18:57:12.183Z,18.75
2019-05-10T18:59:45.453Z,17.47
2019-05-10T19:02:18.210Z,17.60
2019-05-10T19:04:52.687Z,17.27
2019-05-10T19:07:24.669Z,19.12
2019-05-10T19:09:56.763Z,17.73
2019-05-10T19:12:29.363Z,17.15
2019-05-10T19:15:02.516Z,17.07
2019-05-10T19:17:35.701Z,17.85
2019-05-10T19:20:09.697Z,16.05
2019-05-10T19:22:42.704Z,16.35
2019-05-10T19:25:14.954Z,17.23
2019-05-10T19:27:50.891Z,17.70
2019-05-10T19:30:21.949Z,16.80
2019-05-10T19:32:56.459Z,18.02
2019-05-10T19:35:29.826Z,17.25
2019-05-10T19:38:00.115Z,17.50
2019-05-10T19:40:31.882Z,20.50
2019-05-10T19:43:04.053Z,19.12
2019-05-10T19:45:35.894Z,18.17
2019-05-10T19:48:08.600Z,18.40
2019-05-10T19:50:40.338Z,17.92
2019-05-10T19:53:12.321Z,17.95
2019-05-10T19:55:44.165Z,18.35
2019-05-10T19:58:15.749Z,21.37
2019-05-10T20:00:47.700Z,20.27
2019-05-10T20:03:19.666Z,20.10
2019-05-10T20:05:51.352Z,19.12
2019-05-10T20:08:23.698Z,18.85
2019-05-10T20:10:55.847Z,18.57
2019-05-10T20:13:27.937Z,17.77
2019-05-10T20:16:01.469Z,18.27
2019-05-10T20:18:33.298Z,19.00
2019-05-10T20:21:05.039Z,17.45
2019-05-10T20:23:36.902Z,18.50
2019-05-10T20:26:09.113Z,18.60
2019-05-10T20:28:40.865Z,18.98
2019-05-10T20:31:13.010Z,19.50
2019-05-10T20:33:44.670Z,21.07
2019-05-10T20:36:16.639Z,20.55
2019-05-10T20:38:48.220Z,20.17
2019-05-10T20:41:20.454Z,20.55
2019-05-10T20:43:52.194Z,20.15
2019-05-10T20:46:23.961Z,19.17
2019-05-10T20:48:55.758Z,17.90
2019-05-10T20:51:27.985Z,17.00
2019-05-10T20:54:00.059Z,17.50
2019-05-10T20:56:32.039Z,17.75
2019-05-10T20:59:03.880Z,18.15
2019-05-10T21:01:35.654Z,18.73
2019-05-10T21:04:07.829Z,19.55
2019-05-10T21:06:39.791Z,19.17
2019-05-10T21:09:11.648Z,18.98
2019-05-10T21:11:43.609Z,19.30
2019-05-10T21:14:15.518Z,17.48
2019-05-10T21:16:48.444Z,17.30
2019-05-10T21:19:20.452Z,15.65
2019-05-10T21:21:52.186Z,16.10
2019-05-10T21:24:24.100Z,17.40
2019-05-10T21:26:56.917Z,17.40
2019-05-10T21:29:31.059Z,18.52
2019-05-10T21:32:03.288Z,19.02
2019-05-10T21:34:36.191Z,19.27
2019-05-10T21:37:07.959Z,18.65
2019-05-10T21:39:39.695Z,19.62
2019-05-10T21:42:11.601Z,20.30
2019-05-10T21:44:43.554Z,20.68
2019-05-10T21:47:15.731Z,18.62
2019-05-10T21:49:47.378Z,19.42
2019-05-10T21:52:19.587Z,20.17
2019-05-10T21:54:51.450Z,18.98
2019-05-10T21:57:23.380Z,19.02
2019-05-10T21:59:55.446Z,18.70
2019-05-10T22:02:27.517Z,19.05
2019-05-10T22:05:00.294Z,18.95
2019-05-10T22:07:32.142Z,18.32
2019-05-10T22:10:05.869Z,19.10
2019-05-10T22:12:37.726Z,19.57
2019-05-10T22:15:09.593Z,16.48
2019-05-10T22:17:51.573Z,14.98
2019-05-10T22:20:23.310Z,14.35
2019-05-10T22:22:55.095Z,15.15
2019-05-10T22:25:26.916Z,16.60
2019-05-10T22:27:58.526Z,15.60
2019-05-10T22:30:30.097Z,17.10
2019-05-10T22:33:01.771Z,15.60
2019-05-10T22:35:33.475Z,14.95
2019-05-10T22:38:05.153Z,14.38
2019-05-10T22:40:36.792Z,14.00
2019-05-10T22:43:08.873Z,14.40
2019-05-10T22:45:40.635Z,14.18
2019-05-10T22:48:12.593Z,14.20
2019-05-10T22:50:44.818Z,15.85
2019-05-10T22:53:16.936Z,16.32
2019-05-10T22:55:48.881Z,17.57
2019-05-10T22:58:20.759Z,16.90
2019-05-10T23:00:54.156Z,17.90
2019-05-10T23:03:26.210Z,17.25
2019-05-10T23:05:58.286Z,18.00
2019-05-10T23:08:29.948Z,17.62
2019-05-10T23:11:01.789Z,18.17
2019-05-10T23:13:33.678Z,19.35
2019-05-10T23:16:05.660Z,18.30
2019-05-10T23:18:37.274Z,18.07
2019-05-10T23:21:09.252Z,19.20
2019-05-10T23:23:42.033Z,18.30
2019-05-10T23:26:15.211Z,19.60
2019-05-10T23:28:47.195Z,18.85
2019-05-10T23:31:19.265Z,18.37
2019-05-10T23:33:51.331Z,18.57
2019-05-10T23:36:22.944Z,17.60
2019-05-10T23:38:55.075Z,17.48
2019-05-10T23:41:26.896Z,17.12
2019-05-10T23:43:59.065Z,17.75
2019-05-10T23:46:31.027Z,17.05
2019-05-10T23:49:02.919Z,17.35
2019-05-10T23:51:34.962Z,18.40
2019-05-10T23:54:06.727Z,19.32
2019-05-10T23:56:38.597Z,19.00
2019-05-10T23:59:10.365Z,19.27
